createdAt,value
2023-03-06T00:00:37.371Z,1.5
2023-03-06T00:15:48.724Z,1.5
2023-03-06T00:30:46.429Z,1.4
2023-03-06T00:45:39.266Z,1.6
2023-03-06T01:00:39.766Z,1.2
2023-03-06T01:15:45.598Z,1.6
2023-03-06T01:30:48.706Z,1.7
2023-03-06T01:45:47.157Z,1.2
2023-03-06T02:00:47.983Z,1.1
2023-03-06T02:01:28.219Z,1.1
2023-03-06T02:15:48.224Z,0.8
2023-03-06T02:30:49.348Z,1.1
2023-03-06T02:45:48.139Z,1.1
2023-03-06T03:00:44.098Z,0.9
2023-03-06T03:15:52.352Z,0.9
2023-03-06T03:30:55.165Z,0.9
2023-03-06T03:45:54.491Z,0.6
2023-03-06T04:00:55.068Z,0.6
2023-03-06T04:15:53.584Z,0.4
2023-03-06T04:30:55.130Z,0.8
2023-03-06T04:45:54.220Z,0.9
2023-03-06T05:00:55.741Z,0.5
2023-03-06T05:15:53.860Z,0.4
2023-03-06T05:31:03.768Z,0.4
2023-03-06T05:46:02.542Z,0.3
2023-03-06T05:58:46.174Z,0
2023-03-06T06:13:48.759Z,0
2023-03-06T06:28:47.847Z,0.1
2023-03-06T06:43:48.361Z,0.3
2023-03-06T06:58:51.512Z,0.3
2023-03-06T07:13:49.718Z,0.6
2023-03-06T07:28:53.361Z,0.6
2023-03-06T07:43:51.142Z,0.7
2023-03-06T07:58:51.998Z,1.1
2023-03-06T08:13:55.532Z,1.1
2023-03-06T08:28:53.975Z,1.2
2023-03-06T08:43:54.242Z,1.3
2023-03-06T08:58:54.649Z,1.5
2023-03-06T09:14:00.440Z,1.5
2023-03-06T09:28:55.679Z,1.8
2023-03-06T09:43:56.702Z,1.6
2023-03-06T09:58:58.616Z,1.6
2023-03-06T10:13:57.827Z,1.5
2023-03-06T10:29:01.582Z,1.5
2023-03-06T10:43:59.541Z,1.4
2023-03-06T10:59:01.357Z,1.4
2023-03-06T11:14:00.405Z,1.5
2023-03-06T11:29:12.543Z,1.5
2023-03-06T11:44:02.082Z,1.7
2023-03-06T11:59:02.887Z,1.8
2023-03-06T12:14:09.937Z,1.8
2023-03-06T12:29:04.114Z,2.1
2023-03-06T12:44:04.663Z,2.1
2023-03-06T12:59:33.207Z,2.1
2023-03-06T13:14:06.304Z,2.6
2023-03-06T13:29:05.826Z,2.8
2023-03-06T13:44:07.032Z,2.9
2023-03-06T13:59:09.875Z,2.9
2023-03-06T14:14:11.258Z,3
2023-03-06T14:29:11.940Z,2.9
2023-03-06T14:44:09.624Z,2.9
2023-03-06T14:59:15.176Z,2.9
2023-03-06T15:14:11.228Z,2.8
2023-03-06T15:29:11.605Z,2.6
2023-03-06T15:44:30.248Z,2.6
2023-03-06T15:59:17.659Z,2.6
2023-03-06T16:14:40.592Z,2.7
2023-03-06T16:29:14.514Z,2.5
2023-03-06T16:44:15.166Z,2.4
2023-03-06T16:59:14.831Z,2.2
2023-03-06T17:14:16.206Z,2.1
2023-03-06T17:29:22.562Z,2.1
2023-03-06T17:44:21.315Z,1.9
2023-03-06T17:59:19.158Z,1.9
2023-03-06T18:14:19.899Z,1.9
2023-03-06T18:29:27.230Z,1.9
2023-03-06T18:44:20.314Z,1.9
2023-03-06T18:59:23.022Z,1.9
2023-03-06T19:14:22.033Z,1.8
2023-03-06T19:29:23.235Z,1.8
2023-03-06T19:44:25.500Z,1.8
2023-03-06T19:59:24.251Z,1.9
2023-03-06T20:14:27.634Z,1.9
2023-03-06T20:29:28.744Z,1.9
2023-03-06T20:44:34.070Z,1.9
2023-03-06T20:59:27.958Z,1.8
2023-03-06T21:14:38.096Z,1.8
2023-03-06T21:29:28.221Z,1.8
2023-03-06T21:44:30.204Z,1.7
2023-03-06T21:59:30.236Z,1.7
2023-03-06T22:14:30.983Z,1.7
2023-03-06T22:29:30.719Z,1.7
2023-03-06T22:44:33.437Z,1.7
2023-03-06T22:59:32.081Z,1.7
2023-03-06T23:00:47.814Z,1.7
2023-03-06T23:15:35.407Z,1.7
2023-03-06T23:30:36.085Z,1.7
2023-03-06T23:45:49.013Z,1.7
